Rincon Central (216, 909) Station Data

Red Flag Warning: No
Fire Weather Zone: 250
SDGE Region: North East
Lat/Lon: 33.271/-116.946

Observations

Time Wind Speed/Gust Temp(F) RH Fuel Moist Fuel Temp(F) Dewpt(F) Tmax(F) Tmin(F) Accum Precip 10-min Precip SL Press(mb)
5/24 8:20am 93 4 G 8 57° 97% - - 56° 61.1° 53° - - -
5/24 8:10am 245 3 G 6 57° 98% - - 56° 61.1° 53° - - -
5/24 8:00am 35 1 G 4 56° 98% - - 55° 61.1° 53° - - -
5/24 7:50am 276 4 G 6 55° 98% - - 55° 61.1° 53° - - -
5/24 7:40am 291 4 G 7 55° 98% - - 55° 61.1° 53° - - -
5/24 7:30am 82 2 G 5 55° 98% - - 54° 61.1° 53° - - -
5/24 7:20am 264 2 G 5 55° 98% - - 54° 61.1° 53° - - -
5/24 7:10am 308 4 G 7 55° 98% - - 54° 61.1° 53° - - -
5/24 7:00am 52 2 G 4 54° 98% - - 54° 61.1° 53° - - -
5/24 6:50am 129 2 G 4 54° 97% - - 53° 61.1° 53° - - -
5/24 6:40am 53 2 G 4 54° 97% - - 53° 61.1° 53° - - -
5/24 6:30am 296 2 G 4 54° 97% - - 53° 61.1° 53° - - -
5/24 6:20am 295 3 G 5 54° 97% - - 53° 61.1° 53° - - -
5/24 6:10am 307 2 G 4 54° 97% - - 53° 61.1° 53° - - -
5/24 6:00am 285 0 G 1 54° 97% - - 53° 61.1° 53° - - -
5/24 5:50am 64 1 G 4 54° 97% - - 53° 61.1° 53° - - -
5/24 5:40am 121 1 G 4 54° 96% - - 53° 61.1° 53° - - -
5/24 5:30am 33 0 G 1 54° 96% - - 52° 61.1° 53.2° - - -
5/24 5:20am 303 1 G 4 54° 96% - - 53° 61.1° 53.2° - - -
5/24 5:10am 72 2 G 3 54° 96% - - 53° 61.1° 53.3° - - -
5/24 5:00am 132 0 G 1 54° 95% - - 52° 61.1° 53.3° - - -
5/24 4:50am 269 0 G 1 54° 95% - - 53° 61.1° 53.5° - - -
5/24 4:40am 297 3 G 5 55° 95% - - 54° 61.1° 54° - - -
5/24 4:30am 54 1 G 3 55° 95% - - 54° 61.1° 54° - - -
5/24 4:20am 79 1 G 1 54° 94% - - 53° 61.1° 54° - - -
5/24 4:10am 272 1 G 2 56° 94% - - 54° 61.1° 54.2° - - -
5/24 4:00am 54 2 G 3 56° 95% - - 55° 61.1° 55° - - -
5/24 3:50am 84 1 G 3 56° 94% - - 54° 61.1° 55° - - -
5/24 3:40am 83 1 G 3 56° 94% - - 54° 61.1° 55.2° - - -
5/24 3:30am 116 1 G 2 56° 94% - - 54° 61.1° 55.4° - - -
5/24 3:20am 62 2 G 3 57° 95% - - 55° 61.1° 55.8° - - -
5/24 3:10am 55 2 G 3 57° 95% - - 55° 61.1° 55.8° - - -
5/24 3:00am 54 2 G 3 57° 94% - - 55° 61.1° 55.8° - - -
5/24 2:50am 77 2 G 3 56° 93% - - 54° 61.1° 55.8° - - -
5/24 2:40am 89 1 G 2 56° 92% - - 54° 61.1° 55.9° - - -
5/24 2:30am 86 1 G 1 57° 92% - - 55° 61.1° 56° - - -
5/24 2:20am 83 1 G 2 57° 92% - - 55° 61.1° 56.5° - - -
5/24 2:10am 76 0 G 1 57° 92% - - 55° 61.1° 56.9° - - -
5/24 2:00am 120 1 G 2 58° 91% - - 55° 61.1° 57.2° - - -
5/24 1:50am 335 3 G 4 58° 91% - - 56° 61.1° 57.4° - - -
5/24 1:40am 343 1 G 3 59° 89% - - 56° 61.1° 57.4° - - -
5/24 1:30am 55 1 G 3 59° 90% - - 56° 61.1° 58° - - -
5/24 1:20am 72 2 G 2 59° 90% - - 56° 61.1° 58.2° - - -
5/24 1:10am 92 1 G 2 59° 89% - - 56° 61.1° 58.4° - - -
5/24 1:00am 65 0 G 2 59° 88% - - 55° 61.1° 58.4° - - -
5/24 12:50am 74 1 G 2 60° 88% - - 56° 61.1° 59.1° - - -
5/24 12:40am 63 0 G 2 60° 89% - - 57° 61.1° 59.4° - - -
5/24 12:30am 78 2 G 3 60° 88% - - 56° 61.1° 59.4° - - -
5/24 12:20am 84 1 G 3 60° 87% - - 56° 61.1° 59.7° - - -
5/24 12:10am 125 0 G 1 61° 86% - - 56° 61.1° 59.8° - - -
5/24 12:00am 66 2 G 2 61° 86% - - 57° 94.5° 52.7° - - -
5/23 11:50pm 76 2 G 2 61° 85% - - 56° 94.5° 52.7° - - -
5/23 11:40pm 347 0 G 1 61° 85% - - 57° 94.5° 52.7° - - -
5/23 11:30pm 99 0 G 1 62° 83% - - 57° 94.5° 52.7° - - -
5/23 11:20pm 68 1 G 3 62° 83% - - 57° 94.5° 52.7° - - -
5/23 11:10pm 84 0 G 2 63° 81% - - 57° 94.5° 52.7° - - -
5/23 11:00pm 322 2 G 3 64° 81% - - 58° 94.5° 52.7° - - -
5/23 10:50pm 311 2 G 3 64° 79% - - 58° 94.5° 52.7° - - -
5/23 10:40pm 307 3 G 4 65° 77% - - 58° 94.5° 52.7° - - -
5/23 10:30pm 30 0 G 1 66° 75% - - 57° 94.5° 52.7° - - -
5/23 10:20pm 346 0 G 1 66° 74% - - 57° 94.5° 52.7° - - -
5/23 10:10pm 70 2 G 2 66° 73% - - 57° 94.5° 52.7° - - -
5/23 10:00pm 67 0 G 2 67° 69% - - 57° 94.5° 52.7° - - -
5/23 9:50pm 59 1 G 2 68° 69% - - 57° 94.5° 52.7° - - -
5/23 9:40pm 71 1 G 2 68° 69% - - 57° 94.5° 52.7° - - -
5/23 9:30pm 347 1 G 2 68° 69% - - 58° 94.5° 52.7° - - -
5/23 9:20pm 73 2 G 3 69° 67% - - 57° 94.5° 52.7° - - -
5/23 9:10pm 97 0 G 2 69° 66% - - 58° 94.5° 52.7° - - -
5/23 9:00pm 82 2 G 4 69° 67% - - 58° 94.5° 52.7° - - -
5/23 8:50pm 66 2 G 4 69° 66% - - 58° 94.5° 52.7° - - -
5/23 8:40pm 64 2 G 4 70° 66% - - 58° 94.5° 52.7° - - -
5/23 8:30pm 313 1 G 2 71° 64% - - 58° 94.5° 52.7° - - -
5/23 8:20pm 333 1 G 3 71° 63% - - 58° 94.5° 52.7° - - -
5/23 8:10pm 326 2 G 4 72° 63% - - 58° 94.5° 52.7° - - -
5/23 8:00pm 302 3 G 4 72° 61% - - 58° 94.5° 52.7° - - -
5/23 7:50pm 310 3 G 6 73° 60% - - 58° 94.5° 52.7° - - -
5/23 7:40pm 291 5 G 8 74° 58% - - 58° 94.5° 52.7° - - -
5/23 7:30pm 284 6 G 9 76° 54% - - 58° 94.5° 52.7° - - -
5/23 7:20pm 296 7 G 11 77° 50% - - 57° 94.5° 52.7° - - -
5/23 7:10pm 305 6 G 11 78° 48% - - 57° 94.5° 52.7° - - -
5/23 7:00pm 310 8 G 11 79° 49% - - 58° 94.5° 52.7° - - -
5/23 6:50pm 303 8 G 13 80° 47% - - 58° 94.5° 52.7° - - -
5/23 6:40pm 301 9 G 12 82° 44% - - 58° 94.5° 52.7° - - -
5/23 6:30pm 313 9 G 12 83° 42% - - 58° 94.5° 52.7° - - -
5/23 6:20pm 308 9 G 12 86° 38% - - 57° 94.5° 52.7° - - -
5/23 6:10pm 301 7 G 11 87° 34% - - 55° 94.5° 52.7° - - -
5/23 6:00pm 303 5 G 9 89° 29% - - 53° 94.5° 52.7° - - -
5/23 5:50pm 296 5 G 9 89° 28% - - 52° 94.5° 52.7° - - -
5/23 5:40pm 295 4 G 8 89° 27% - - 51° 94.5° 52.7° - - -
5/23 5:30pm 296 4 G 7 89° 26% - - 50° 94.5° 52.7° - - -
5/23 5:20pm 269 4 G 7 90° 24% - - 48° 94.5° 52.7° - - -
5/23 5:10pm 296 4 G 8 89° 24% - - 48° 94.5° 52.7° - - -
5/23 5:00pm 310 3 G 6 89° 24% - - 48° 94.5° 52.7° - - -
5/23 4:50pm 286 4 G 8 89° 26% - - 49° 94.5° 52.7° - - -
5/23 4:40pm 273 4 G 8 89° 27% - - 50° 94.5° 52.7° - - -
5/23 4:30pm 323 5 G 9 88° 27% - - 50° 94.5° 52.7° - - -
5/23 4:20pm 301 4 G 10 89° 28% - - 51° 94.5° 52.7° - - -
5/23 4:10pm 291 3 G 9 88° 30% - - 52° 94.5° 52.7° - - -
5/23 4:00pm 305 4 G 9 87° 29% - - 51° 94.5° 52.7° - - -
5/23 3:50pm 308 5 G 8 88° 30% - - 52° 94.5° 52.7° - - -
5/23 3:40pm 307 5 G 10 86° 32% - - 53° 94.5° 52.7° - - -
5/23 3:30pm 314 6 G 11 86° 36% - - 55° 94.5° 52.7° - - -
5/23 3:20pm 311 8 G 13 86° 37% - - 57° 94.5° 52.7° - - -
5/23 3:10pm 334 7 G 13 85° 40% - - 58° 94.5° 52.7° - - -
5/23 3:00pm 331 8 G 13 85° 40% - - 58° 94.5° 52.7° - - -
5/23 2:50pm 311 7 G 12 85° 42% - - 60° 94.5° 52.7° - - -
5/23 2:40pm 296 7 G 13 85° 43% - - 61° 94.5° 52.7° - - -
5/23 2:30pm 271 7 G 12 85° 44% - - 61° 94.5° 52.7° - - -
5/23 2:20pm 323 8 G 13 85° 44% - - 61° 94.5° 52.7° - - -
5/23 2:10pm 314 8 G 13 85° 44% - - 61° 94.5° 52.7° - - -
5/23 2:00pm 308 8 G 12 85° 44% - - 61° 94.5° 52.7° - - -
5/23 1:50pm 316 8 G 12 84° 45% - - 61° 94.5° 52.7° - - -
5/23 1:40pm 303 8 G 12 84° 45% - - 61° 94.5° 52.7° - - -
5/23 1:30pm 305 9 G 13 84° 45% - - 60° 94.5° 52.7° - - -
5/23 1:20pm 324 9 G 16 84° 45% - - 60° 94.5° 52.7° - - -
5/23 1:10pm 320 9 G 14 84° 45% - - 60° 94.5° 52.7° - - -
5/23 1:00pm 316 10 G 15 85° 43% - - 60° 94.5° 52.7° - - -
5/23 12:50pm 308 10 G 15 87° 41% - - 60° 94.5° 52.7° - - -
5/23 12:40pm 312 9 G 16 88° 39% - - 60° 94.5° 52.7° - - -
5/23 12:30pm 310 9 G 16 90° 36% - - 59° 94.5° 52.7° - - -
5/23 12:20pm 285 8 G 14 91° 34% - - 59° 94.5° 52.7° - - -
5/23 12:10pm 299 8 G 15 93° 28% - - 55° 94.5° 52.7° - - -
5/23 12:00pm 294 4 G 10 94° 26% - - 53° 94.5° 52.7° - - -
5/23 11:50am 241 2 G 8 93° 25% - - 52° 94.5° 52.7° - - -
5/23 11:40am 281 3 G 6 92° 26% - - 52° 92.8° 52.7° - - -
5/23 11:30am 246 3 G 7 91° 26% - - 52° 92.8° 52.7° - - -
5/23 11:20am 206 2 G 4 90° 26% - - 50° 90.7° 52.7° - - -
5/23 11:10am 220 3 G 6 88° 28% - - 51° 89.3° 52.7° - - -
5/23 11:00am 252 3 G 6 88° 29% - - 51° 88.5° 52.7° - - -
5/23 10:50am 241 3 G 6 86° 30% - - 52° 87.7° 52.7° - - -
5/23 10:40am 254 2 G 4 85° 33% - - 53° 85.8° 52.7° - - -
5/23 10:30am 273 3 G 5 84° 35% - - 54° 84.9° 52.7° - - -
5/23 10:20am 284 3 G 5 83° 37% - - 54° 83.6° 52.7° - - -
5/23 10:10am 279 2 G 6 82° 37% - - 53° 82.7° 52.7° - - -
5/23 10:00am 280 2 G 5 81° 38% - - 53° 82.1° 52.7° - - -
5/23 9:50am 131 1 G 4 79° 40% - - 53° 80.4° 52.7° - - -
5/23 9:40am 116 1 G 3 78° 41% - - 52° 79.1° 52.7° - - -
5/23 9:30am 242 2 G 4 76° 42% - - 52° 77.2° 52.7° - - -
5/23 9:20am 357 1 G 4 75° 44% - - 52° 76.6° 52.7° - - -
5/23 9:10am 294 1 G 3 74° 46% - - 52° 74.6° 52.7° - - -
5/23 9:00am 266 1 G 3 72° 50% - - 52° 73° 52.7° - - -
5/23 8:50am 256 2 G 4 71° 56% - - 54° 71.5° 52.7° - - -
5/23 8:40am 290 1 G 4 69° 60% - - 55° 70.3° 52.7° - - -
5/23 8:30am 127 1 G 3 68° 65% - - 55° 68.7° 52.7° - - -
5/23 8:20am 277 1 G 3 66° 67% - - 55° 67.5° 52.7° - - -
5/23 8:10am 340 1 G 3 64° 73% - - 56° 65.7° 52.7° - - -
5/23 8:00am 319 3 G 4 63° 75% - - 55° 64.2° 52.7° - - -
5/23 7:50am 318 3 G 4 62° 77% - - 55° 63.1° 52.7° - - -
5/23 7:40am 306 2 G 3 61° 80% - - 55° 61.9° 52.7° - - -
5/23 7:30am 299 1 G 3 61° 80% - - 55° 61.8° 52.7° - - -
5/23 7:20am 102 0 G 1 60° 85% - - 55° 61.8° 52.7° - - -
5/23 7:10am 0 0 G 0 58° 90% - - 55° 61.8° 52.7° - - -
5/23 7:00am 74 1 G 2 55° 93% - - 53° 61.8° 52.7° - - -
5/23 6:50am 76 0 G 2 54° 93% - - 52° 61.8° 52.7° - - -
5/23 6:40am 66 1 G 2 53° 93% - - 51° 61.8° 52.7° - - -
5/23 6:30am 160 1 G 2 54° 93% - - 52° 61.8° 52.7° - - -
5/23 6:20am 75 1 G 2 54° 94% - - 53° 61.8° 52.7° - - -
5/23 6:10am 74 2 G 3 53° 94% - - 52° 61.8° 52.7° - - -
5/23 6:00am 343 0 G 2 53° 94% - - 52° 61.8° 52.7° - - -